createdAt,value
2023-01-27T00:00:24.469Z,32.10
2023-01-27T00:06:26.391Z,34.92
2023-01-27T00:12:46.942Z,35.40
2023-01-27T00:18:48.852Z,32.50
2023-01-27T00:24:50.777Z,33.53
2023-01-27T00:30:53.241Z,33.33
2023-01-27T00:36:55.182Z,31.05
2023-01-27T00:42:57.001Z,32.53
2023-01-27T00:48:58.996Z,32.85
2023-01-27T00:55:00.832Z,28.45
2023-01-27T01:01:05.922Z,31.02
2023-01-27T01:07:07.705Z,29.95
2023-01-27T01:13:12.050Z,36.53
2023-01-27T01:19:13.961Z,36.08
2023-01-27T01:25:15.863Z,30.75
2023-01-27T01:31:19.975Z,34.20
2023-01-27T01:37:21.922Z,29.60
2023-01-27T01:43:23.730Z,25.52
2023-01-27T01:49:38.907Z,28.02
2023-01-27T01:55:41.871Z,31.98
2023-01-27T02:01:43.929Z,26.23
2023-01-27T02:08:01.014Z,25.95
2023-01-27T02:14:03.432Z,26.95
2023-01-27T02:20:35.939Z,25.25
2023-01-27T02:26:44.144Z,26.75
2023-01-27T02:32:45.951Z,29.67
2023-01-27T02:38:52.647Z,28.27
2023-01-27T02:44:54.424Z,31.70
2023-01-27T02:50:56.451Z,27.45
2023-01-27T02:56:58.291Z,29.80
2023-01-27T03:03:00.072Z,30.30
2023-01-27T03:09:01.923Z,26.92
2023-01-27T03:15:22.899Z,26.65
2023-01-27T03:21:25.301Z,21.85
2023-01-27T03:27:27.135Z,24.88
2023-01-27T03:33:29.335Z,21.75
2023-01-27T03:39:50.009Z,23.63
2023-01-27T03:46:10.727Z,23.85
2023-01-27T03:52:12.526Z,23.38
2023-01-27T03:58:31.797Z,25.08
2023-01-27T04:04:52.109Z,22.23
2023-01-27T04:11:14.137Z,22.13
2023-01-27T04:17:18.104Z,24.42
2023-01-27T04:23:20.068Z,26.23
2023-01-27T04:29:29.782Z,26.77
2023-01-27T04:35:38.582Z,18.15
2023-01-27T04:41:40.983Z,17.55
2023-01-27T04:47:42.999Z,13.73
2023-01-27T04:53:45.001Z,11.93
2023-01-27T04:59:46.800Z,12.98
2023-01-27T05:05:48.759Z,11.13
2023-01-27T05:11:50.744Z,8.88
2023-01-27T05:17:52.755Z,7.55
2023-01-27T05:23:54.616Z,11.65
2023-01-27T05:29:57.235Z,9.68
2023-01-27T05:36:01.213Z,15.90
2023-01-27T05:42:02.973Z,12.27
2023-01-27T05:48:04.908Z,11.73
2023-01-27T05:54:07.962Z,14.35
2023-01-27T06:00:10.587Z,17.17
2023-01-27T06:06:13.419Z,15.60
2023-01-27T06:12:15.278Z,15.52
2023-01-27T06:18:18.830Z,12.25
2023-01-27T06:24:20.679Z,12.35
2023-01-27T06:30:23.078Z,11.25
2023-01-27T06:36:25.021Z,12.20
2023-01-27T06:42:26.999Z,12.73
2023-01-27T06:48:29.235Z,10.68
2023-01-27T06:54:31.103Z,11.15
2023-01-27T07:00:32.959Z,12.07
2023-01-27T07:06:34.744Z,12.38
2023-01-27T07:12:37.921Z,12.13
2023-01-27T07:18:39.730Z,12.27
2023-01-27T07:24:41.518Z,13.57
2023-01-27T07:30:44.153Z,15.15
2023-01-27T07:36:46.063Z,12.80
2023-01-27T07:42:47.878Z,12.82
2023-01-27T07:48:49.801Z,10.13
2023-01-27T07:54:51.673Z,9.43
2023-01-27T08:00:53.473Z,8.30
2023-01-27T08:06:55.320Z,8.88
2023-01-27T08:12:57.245Z,11.68
2023-01-27T08:18:59.202Z,11.55
2023-01-27T08:25:01.121Z,11.55
2023-01-27T08:31:10.203Z,9.05
2023-01-27T08:37:12.148Z,10.60
2023-01-27T08:43:16.592Z,7.63
2023-01-27T08:49:18.406Z,12.02
2023-01-27T08:55:20.265Z,12.27
2023-01-27T09:01:22.132Z,9.27
2023-01-27T09:07:24.046Z,7.93
2023-01-27T09:13:25.871Z,7.63
2023-01-27T09:19:27.655Z,4.75
2023-01-27T09:25:29.819Z,4.80
2023-01-27T09:31:32.617Z,4.43
2023-01-27T09:37:57.088Z,3.58
2023-01-27T09:44:14.095Z,4.82
2023-01-27T09:50:24.664Z,5.53
2023-01-27T09:56:39.127Z,4.72
2023-01-27T10:02:59.392Z,3.33
2023-01-27T10:09:23.278Z,4.10
2023-01-27T10:15:39.519Z,3.05
2023-01-27T10:22:17.179Z,4.63
2023-01-27T10:28:23.673Z,3.08
2023-01-27T10:34:48.472Z,4.10
2023-01-27T10:41:16.159Z,4.00
2023-01-27T10:47:38.255Z,4.53
2023-01-27T10:53:52.091Z,4.35
2023-01-27T11:00:21.900Z,4.78
2023-01-27T11:06:29.171Z,5.07
2023-01-27T11:12:35.543Z,2.90
2023-01-27T11:18:39.076Z,3.72
2023-01-27T11:25:25.739Z,5.22
2023-01-27T11:32:03.533Z,5.35
2023-01-27T11:38:20.122Z,4.10
2023-01-27T11:44:29.459Z,4.10
2023-01-27T11:50:34.826Z,3.92
2023-01-27T11:56:38.036Z,3.35
2023-01-27T12:02:50.152Z,4.50
2023-01-27T12:08:51.962Z,4.32
2023-01-27T12:15:04.745Z,3.72
2023-01-27T12:21:08.982Z,4.35
2023-01-27T12:27:21.878Z,3.28
2023-01-27T12:33:28.888Z,4.38
2023-01-27T12:39:39.735Z,3.72
2023-01-27T12:45:43.388Z,8.02
2023-01-27T12:51:53.796Z,4.90
2023-01-27T12:57:55.710Z,4.90
2023-01-27T13:04:11.176Z,3.63
2023-01-27T13:10:21.099Z,2.70
2023-01-27T13:16:28.736Z,2.50
2023-01-27T13:22:41.989Z,4.97
2023-01-27T13:29:14.840Z,5.22
2023-01-27T13:35:33.251Z,3.05
2023-01-27T13:42:00.169Z,3.95
2023-01-27T13:48:16.012Z,5.13
2023-01-27T13:54:17.788Z,2.35
2023-01-27T14:00:25.266Z,6.07
2023-01-27T14:07:22.062Z,5.45
2023-01-27T14:13:36.826Z,3.38
2023-01-27T14:19:51.244Z,4.75
2023-01-27T14:26:13.904Z,6.28
2023-01-27T14:32:32.325Z,3.90
2023-01-27T14:38:55.284Z,3.90
2023-01-27T14:45:11.479Z,3.83
2023-01-27T14:51:50.647Z,3.17
2023-01-27T14:57:57.098Z,5.03
2023-01-27T15:04:36.332Z,5.80
2023-01-27T15:10:49.269Z,3.58
2023-01-27T15:17:11.796Z,7.63
2023-01-27T15:23:38.343Z,4.05
2023-01-27T15:29:40.590Z,3.90
2023-01-27T15:35:42.753Z,5.97
2023-01-27T15:42:03.256Z,3.75
2023-01-27T15:48:18.340Z,1.80
2023-01-27T15:54:28.684Z,6.57
2023-01-27T16:00:49.545Z,2.22
2023-01-27T16:07:01.998Z,2.75
2023-01-27T16:13:26.161Z,2.13
2023-01-27T16:19:34.301Z,3.97
2023-01-27T16:25:46.449Z,4.05
2023-01-27T16:31:54.604Z,2.50
2023-01-27T16:38:41.362Z,2.35
2023-01-27T16:44:51.788Z,4.13
2023-01-27T16:50:55.460Z,2.30
2023-01-27T16:56:58.192Z,2.00
2023-01-27T17:03:12.944Z,3.53
2023-01-27T17:09:31.916Z,3.05
2023-01-27T17:15:38.616Z,5.45
2023-01-27T17:22:19.388Z,6.15
2023-01-27T17:28:26.598Z,4.10
2023-01-27T17:34:28.717Z,3.17
2023-01-27T17:40:39.099Z,3.80
2023-01-27T17:46:41.529Z,6.00
2023-01-27T17:52:52.139Z,5.30
2023-01-27T17:59:15.840Z,2.40
2023-01-27T18:05:33.111Z,4.60
2023-01-27T18:11:36.648Z,3.53
2023-01-27T18:17:38.404Z,3.15
2023-01-27T18:23:45.305Z,2.80
2023-01-27T18:29:51.625Z,3.17
2023-01-27T18:36:00.959Z,4.65
2023-01-27T18:42:04.155Z,3.97
2023-01-27T18:48:14.493Z,8.32
2023-01-27T18:54:16.457Z,4.07
2023-01-27T19:00:21.941Z,5.65
2023-01-27T19:06:24.022Z,5.32
2023-01-27T19:12:25.770Z,5.28
2023-01-27T19:18:36.722Z,6.30
2023-01-27T19:24:38.632Z,5.78
2023-01-27T19:30:40.757Z,5.93
2023-01-27T19:36:45.914Z,5.38
2023-01-27T19:42:48.480Z,4.93
2023-01-27T19:48:50.392Z,4.85
2023-01-27T19:54:52.265Z,4.30
2023-01-27T20:00:56.123Z,4.40
2023-01-27T20:06:58.129Z,4.90
2023-01-27T20:13:03.239Z,5.65
2023-01-27T20:19:05.262Z,5.65
2023-01-27T20:25:07.800Z,6.00
2023-01-27T20:31:14.209Z,6.70
2023-01-27T20:37:17.428Z,3.83
2023-01-27T20:43:33.542Z,4.10
2023-01-27T20:49:36.547Z,3.35
2023-01-27T20:55:38.530Z,6.22
2023-01-27T21:01:40.742Z,4.90
2023-01-27T21:07:42.853Z,4.43
2023-01-27T21:13:45.105Z,5.45
2023-01-27T21:19:47.069Z,3.83
2023-01-27T21:25:50.171Z,3.95
2023-01-27T21:31:52.112Z,3.03
2023-01-27T21:37:53.935Z,2.13
2023-01-27T21:44:14.724Z,2.72
2023-01-27T21:50:17.481Z,6.18
2023-01-27T21:56:19.422Z,5.05
2023-01-27T22:02:21.902Z,3.58
2023-01-27T22:08:23.739Z,4.13
2023-01-27T22:14:25.632Z,5.80
2023-01-27T22:20:28.730Z,4.63
2023-01-27T22:26:30.654Z,7.03
2023-01-27T22:32:32.556Z,4.75
2023-01-27T22:38:38.634Z,4.75
2023-01-27T22:44:40.486Z,5.00
2023-01-27T22:50:42.720Z,6.38
2023-01-27T22:56:44.522Z,3.38
2023-01-27T23:02:46.425Z,5.07
2023-01-27T23:08:48.319Z,4.65
2023-01-27T23:14:50.259Z,4.30
2023-01-27T23:20:52.730Z,4.15
2023-01-27T23:26:54.526Z,4.80
2023-01-27T23:32:57.252Z,4.93
2023-01-27T23:38:59.128Z,3.78
2023-01-27T23:45:00.944Z,3.88
2023-01-27T23:51:07.691Z,4.25
2023-01-27T23:57:09.735Z,3.70
